sensor_id;sensor_type;location;lat;lon;timestamp;P1;durP1;ratioP1;P2;durP2;ratioP2
63379;SDS011;53160;55.014;73.156;2023-04-01T00:02:25;14.60;;;13.20;;
63379;SDS011;53160;55.014;73.156;2023-04-01T00:04:54;19.40;;;16.00;;
63379;SDS011;53160;55.014;73.156;2023-04-01T00:07:20;11.80;;;9.20;;
63379;SDS011;53160;55.014;73.156;2023-04-01T00:09:46;19.80;;;16.80;;
63379;SDS011;53160;55.014;73.156;2023-04-01T00:12:12;17.50;;;14.75;;
63379;SDS011;53160;55.014;73.156;2023-04-01T00:14:38;16.25;;;14.50;;
63379;SDS011;53160;55.014;73.156;2023-04-01T00:17:05;25.00;;;17.60;;
63379;SDS011;53160;55.014;73.156;2023-04-01T00:19:31;18.00;;;16.00;;
63379;SDS011;53160;55.014;73.156;2023-04-01T00:22:00;15.80;;;13.80;;
63379;SDS011;53160;55.014;73.156;2023-04-01T00:24:34;25.40;;;16.40;;
63379;SDS011;53160;55.014;73.156;2023-04-01T00:27:01;15.80;;;13.80;;
63379;SDS011;53160;55.014;73.156;2023-04-01T00:29:27;22.80;;;18.60;;
63379;SDS011;53160;55.014;73.156;2023-04-01T00:31:57;23.20;;;19.00;;
63379;SDS011;53160;55.014;73.156;2023-04-01T00:34:23;20.60;;;16.60;;
63379;SDS011;53160;55.014;73.156;2023-04-01T00:36:49;19.40;;;17.20;;
63379;SDS011;53160;55.014;73.156;2023-04-01T00:39:16;26.80;;;21.00;;
63379;SDS011;53160;55.014;73.156;2023-04-01T00:41:42;23.40;;;17.20;;
63379;SDS011;53160;55.014;73.156;2023-04-01T00:44:17;9.20;;;9.20;;
63379;SDS011;53160;55.014;73.156;2023-04-01T00:46:43;22.80;;;19.20;;
63379;SDS011;53160;55.014;73.156;2023-04-01T00:49:09;20.25;;;18.00;;
63379;SDS011;53160;55.014;73.156;2023-04-01T00:51:35;14.20;;;14.20;;
63379;SDS011;53160;55.014;73.156;2023-04-01T00:54:09;22.80;;;18.60;;
63379;SDS011;53160;55.014;73.156;2023-04-01T00:56:39;21.00;;;19.00;;
63379;SDS011;53160;55.014;73.156;2023-04-01T00:59:08;17.60;;;15.40;;
63379;SDS011;53160;55.014;73.156;2023-04-01T01:01:36;21.80;;;18.20;;
63379;SDS011;53160;55.014;73.156;2023-04-01T01:04:02;27.60;;;22.00;;
63379;SDS011;53160;55.014;73.156;2023-04-01T01:09:06;16.50;;;13.75;;
63379;SDS011;53160;55.014;73.156;2023-04-01T01:11:44;17.20;;;16.80;;
63379;SDS011;53160;55.014;73.156;2023-04-01T01:17:23;15.80;;;12.40;;
63379;SDS011;53160;55.014;73.156;2023-04-01T01:20:10;9.20;;;7.00;;
63379;SDS011;53160;55.014;73.156;2023-04-01T01:25:39;14.00;;;11.60;;
63379;SDS011;53160;55.014;73.156;2023-04-01T01:31:00;15.60;;;13.00;;
63379;SDS011;53160;55.014;73.156;2023-04-01T01:34:34;18.60;;;15.60;;
63379;SDS011;53160;55.014;73.156;2023-04-01T01:36:27;13.80;;;11.40;;
63379;SDS011;53160;55.014;73.156;2023-04-01T01:39:04;14.60;;;10.80;;
63379;SDS011;53160;55.014;73.156;2023-04-01T01:41:36;20.20;;;16.20;;
63379;SDS011;53160;55.014;73.156;2023-04-01T01:44:04;15.00;;;13.00;;
63379;SDS011;53160;55.014;73.156;2023-04-01T01:46:32;15.40;;;12.00;;
63379;SDS011;53160;55.014;73.156;2023-04-01T01:49:09;15.00;;;13.00;;
63379;SDS011;53160;55.014;73.156;2023-04-01T01:51:36;15.60;;;15.40;;
63379;SDS011;53160;55.014;73.156;2023-04-01T01:54:05;12.00;;;10.00;;
63379;SDS011;53160;55.014;73.156;2023-04-01T01:56:31;14.20;;;12.60;;
63379;SDS011;53160;55.014;73.156;2023-04-01T01:59:08;19.00;;;18.20;;
63379;SDS011;53160;55.014;73.156;2023-04-01T02:01:37;17.00;;;13.60;;
63379;SDS011;53160;55.014;73.156;2023-04-01T02:04:12;29.60;;;26.60;;
63379;SDS011;53160;55.014;73.156;2023-04-01T02:06:43;15.40;;;13.00;;
63379;SDS011;53160;55.014;73.156;2023-04-01T02:09:12;21.40;;;20.20;;
63379;SDS011;53160;55.014;73.156;2023-04-01T02:11:46;16.40;;;13.80;;
63379;SDS011;53160;55.014;73.156;2023-04-01T02:14:14;18.40;;;16.40;;
63379;SDS011;53160;55.014;73.156;2023-04-01T02:17:03;31.20;;;26.60;;
63379;SDS011;53160;55.014;73.156;2023-04-01T02:19:30;29.20;;;24.60;;
63379;SDS011;53160;55.014;73.156;2023-04-01T02:22:09;13.40;;;13.40;;
63379;SDS011;53160;55.014;73.156;2023-04-01T02:24:42;13.40;;;13.00;;
63379;SDS011;53160;55.014;73.156;2023-04-01T02:27:10;26.20;;;24.00;;
63379;SDS011;53160;55.014;73.156;2023-04-01T02:29:37;22.80;;;19.80;;
63379;SDS011;53160;55.014;73.156;2023-04-01T02:32:07;16.80;;;13.40;;
63379;SDS011;53160;55.014;73.156;2023-04-01T02:34:34;15.20;;;11.00;;
63379;SDS011;53160;55.014;73.156;2023-04-01T02:37:00;12.00;;;10.00;;
63379;SDS011;53160;55.014;73.156;2023-04-01T02:39:32;13.40;;;11.40;;
63379;SDS011;53160;55.014;73.156;2023-04-01T02:41:58;13.60;;;10.40;;
63379;SDS011;53160;55.014;73.156;2023-04-01T02:44:24;8.00;;;6.60;;
63379;SDS011;53160;55.014;73.156;2023-04-01T02:46:50;11.20;;;7.60;;
63379;SDS011;53160;55.014;73.156;2023-04-01T02:49:16;8.00;;;6.20;;
63379;SDS011;53160;55.014;73.156;2023-04-01T02:51:42;5.50;;;5.50;;
63379;SDS011;53160;55.014;73.156;2023-04-01T02:54:09;9.20;;;8.00;;
63379;SDS011;53160;55.014;73.156;2023-04-01T02:56:35;9.40;;;7.60;;
63379;SDS011;53160;55.014;73.156;2023-04-01T02:59:01;11.00;;;6.60;;
63379;SDS011;53160;55.014;73.156;2023-04-01T03:01:37;9.40;;;7.40;;
63379;SDS011;53160;55.014;73.156;2023-04-01T03:04:06;7.80;;;6.60;;
63379;SDS011;53160;55.014;73.156;2023-04-01T03:06:32;9.20;;;9.20;;
63379;SDS011;53160;55.014;73.156;2023-04-01T03:08:58;5.00;;;4.80;;
63379;SDS011;53160;55.014;73.156;2023-04-01T03:11:25;8.20;;;5.00;;
63379;SDS011;53160;55.014;73.156;2023-04-01T03:13:57;4.00;;;2.00;;
63379;SDS011;53160;55.014;73.156;2023-04-01T03:16:23;7.00;;;6.60;;
63379;SDS011;53160;55.014;73.156;2023-04-01T03:18:50;4.60;;;4.00;;
63379;SDS011;53160;55.014;73.156;2023-04-01T03:21:28;15.20;;;8.60;;
63379;SDS011;53160;55.014;73.156;2023-04-01T03:23:54;7.00;;;4.40;;
63379;SDS011;53160;55.014;73.156;2023-04-01T03:26:20;7.00;;;6.60;;
63379;SDS011;53160;55.014;73.156;2023-04-01T03:28:47;4.20;;;4.20;;
63379;SDS011;53160;55.014;73.156;2023-04-01T03:31:13;5.40;;;2.80;;
63379;SDS011;53160;55.014;73.156;2023-04-01T03:33:46;8.00;;;5.20;;
63379;SDS011;53160;55.014;73.156;2023-04-01T03:36:12;6.00;;;5.60;;
63379;SDS011;53160;55.014;73.156;2023-04-01T03:38:44;4.60;;;3.60;;
63379;SDS011;53160;55.014;73.156;2023-04-01T03:41:14;7.80;;;4.60;;
63379;SDS011;53160;55.014;73.156;2023-04-01T03:43:41;5.60;;;4.40;;
63379;SDS011;53160;55.014;73.156;2023-04-01T03:46:08;2.40;;;2.00;;
63379;SDS011;53160;55.014;73.156;2023-04-01T03:48:34;3.20;;;3.20;;
63379;SDS011;53160;55.014;73.156;2023-04-01T03:51:07;8.80;;;7.80;;
63379;SDS011;53160;55.014;73.156;2023-04-01T03:53:33;5.40;;;3.60;;
63379;SDS011;53160;55.014;73.156;2023-04-01T03:56:06;10.20;;;4.40;;
63379;SDS011;53160;55.014;73.156;2023-04-01T03:58:35;6.00;;;4.20;;
63379;SDS011;53160;55.014;73.156;2023-04-01T04:01:03;1.60;;;1.20;;
63379;SDS011;53160;55.014;73.156;2023-04-01T04:03:38;2.00;;;2.00;;
63379;SDS011;53160;55.014;73.156;2023-04-01T04:06:13;10.80;;;6.60;;
63379;SDS011;53160;55.014;73.156;2023-04-01T04:08:39;6.40;;;5.20;;
63379;SDS011;53160;55.014;73.156;2023-04-01T04:11:05;7.20;;;2.00;;
63379;SDS011;53160;55.014;73.156;2023-04-01T04:13:34;5.80;;;4.00;;
63379;SDS011;53160;55.014;73.156;2023-04-01T04:16:04;4.00;;;2.40;;
63379;SDS011;53160;55.014;73.156;2023-04-01T04:18:33;4.00;;;1.20;;
63379;SDS011;53160;55.014;73.156;2023-04-01T04:20:59;7.40;;;6.20;;
63379;SDS011;53160;55.014;73.156;2023-04-01T04:23:25;6.20;;;4.20;;
63379;SDS011;53160;55.014;73.156;2023-04-01T04:25:55;5.00;;;4.00;;
63379;SDS011;53160;55.014;73.156;2023-04-01T04:28:21;4.00;;;2.00;;
63379;SDS011;53160;55.014;73.156;2023-04-01T04:30:48;5.00;;;2.00;;
63379;SDS011;53160;55.014;73.156;2023-04-01T04:33:24;4.40;;;2.40;;
63379;SDS011;53160;55.014;73.156;2023-04-01T04:35:56;5.00;;;4.00;;
63379;SDS011;53160;55.014;73.156;2023-04-01T04:38:23;8.40;;;4.40;;
63379;SDS011;53160;55.014;73.156;2023-04-01T04:40:49;20.20;;;11.00;;
63379;SDS011;53160;55.014;73.156;2023-04-01T04:43:15;9.40;;;7.20;;
63379;SDS011;53160;55.014;73.156;2023-04-01T04:45:42;10.20;;;5.20;;
63379;SDS011;53160;55.014;73.156;2023-04-01T04:48:10;8.80;;;5.00;;
63379;SDS011;53160;55.014;73.156;2023-04-01T04:50:40;13.60;;;6.00;;
63379;SDS011;53160;55.014;73.156;2023-04-01T04:53:06;36.00;;;16.20;;
63379;SDS011;53160;55.014;73.156;2023-04-01T04:55:34;2.00;;;2.00;;
63379;SDS011;53160;55.014;73.156;2023-04-01T04:58:23;8.80;;;7.20;;
63379;SDS011;53160;55.014;73.156;2023-04-01T05:00:49;6.00;;;5.00;;
63379;SDS011;53160;55.014;73.156;2023-04-01T05:03:24;1.40;;;1.00;;
63379;SDS011;53160;55.014;73.156;2023-04-01T05:05:55;6.00;;;3.40;;
63379;SDS011;53160;55.014;73.156;2023-04-01T05:08:25;11.00;;;6.40;;
63379;SDS011;53160;55.014;73.156;2023-04-01T05:10:51;3.00;;;3.00;;
63379;SDS011;53160;55.014;73.156;2023-04-01T05:13:17;14.00;;;9.20;;
63379;SDS011;53160;55.014;73.156;2023-04-01T05:15:49;13.20;;;6.80;;
63379;SDS011;53160;55.014;73.156;2023-04-01T05:18:15;9.20;;;6.80;;
63379;SDS011;53160;55.014;73.156;2023-04-01T05:20:49;4.20;;;2.00;;
63379;SDS011;53160;55.014;73.156;2023-04-01T05:23:19;4.20;;;2.60;;
63379;SDS011;53160;55.014;73.156;2023-04-01T05:25:47;1.80;;;1.40;;
63379;SDS011;53160;55.014;73.156;2023-04-01T05:28:17;12.20;;;5.00;;
63379;SDS011;53160;55.014;73.156;2023-04-01T05:30:45;5.60;;;5.00;;
63379;SDS011;53160;55.014;73.156;2023-04-01T05:33:21;7.20;;;2.60;;
63379;SDS011;53160;55.014;73.156;2023-04-01T05:35:50;17.20;;;8.80;;
63379;SDS011;53160;55.014;73.156;2023-04-01T05:38:16;4.20;;;3.80;;
63379;SDS011;53160;55.014;73.156;2023-04-01T05:40:42;10.25;;;9.00;;
63379;SDS011;53160;55.014;73.156;2023-04-01T05:43:18;6.00;;;5.00;;
63379;SDS011;53160;55.014;73.156;2023-04-01T05:45:48;5.40;;;3.80;;
63379;SDS011;53160;55.014;73.156;2023-04-01T05:48:14;2.60;;;2.60;;
63379;SDS011;53160;55.014;73.156;2023-04-01T05:50:41;10.00;;;7.20;;
63379;SDS011;53160;55.014;73.156;2023-04-01T05:53:09;16.80;;;9.00;;
63379;SDS011;53160;55.014;73.156;2023-04-01T05:55:36;9.00;;;5.00;;
63379;SDS011;53160;55.014;73.156;2023-04-01T05:58:03;5.40;;;5.00;;
63379;SDS011;53160;55.014;73.156;2023-04-01T06:00:29;6.00;;;3.00;;
63379;SDS011;53160;55.014;73.156;2023-04-01T06:02:58;1.60;;;1.00;;
63379;SDS011;53160;55.014;73.156;2023-04-01T06:05:27;17.00;;;8.80;;
63379;SDS011;53160;55.014;73.156;2023-04-01T06:07:58;11.60;;;7.80;;
63379;SDS011;53160;55.014;73.156;2023-04-01T06:10:43;15.60;;;9.00;;
63379;SDS011;53160;55.014;73.156;2023-04-01T06:45:03;9.20;;;6.00;;
63379;SDS011;53160;55.014;73.156;2023-04-01T06:50:58;9.60;;;5.60;;
63379;SDS011;53160;55.014;73.156;2023-04-01T06:57:00;6.40;;;3.00;;
63379;SDS011;53160;55.014;73.156;2023-04-01T06:59:30;9.20;;;5.00;;
63379;SDS011;53160;55.014;73.156;2023-04-01T07:04:37;3.00;;;3.00;;
63379;SDS011;53160;55.014;73.156;2023-04-01T07:07:06;4.00;;;2.00;;
63379;SDS011;53160;55.014;73.156;2023-04-01T07:09:48;12.25;;;5.75;;
63379;SDS011;53160;55.014;73.156;2023-04-01T07:15:18;2.40;;;2.40;;
63379;SDS011;53160;55.014;73.156;2023-04-01T07:17:45;9.60;;;8.40;;
63379;SDS011;53160;55.014;73.156;2023-04-01T07:22:42;3.00;;;2.80;;
63379;SDS011;53160;55.014;73.156;2023-04-01T07:25:38;7.00;;;3.00;;
63379;SDS011;53160;55.014;73.156;2023-04-01T07:28:34;21.20;;;14.40;;
63379;SDS011;53160;55.014;73.156;2023-04-01T07:31:42;4.60;;;2.80;;
63379;SDS011;53160;55.014;73.156;2023-04-01T07:34:14;17.80;;;10.00;;
63379;SDS011;53160;55.014;73.156;2023-04-01T07:36:46;6.20;;;4.80;;
63379;SDS011;53160;55.014;73.156;2023-04-01T07:44:54;4.50;;;3.25;;
63379;SDS011;53160;55.014;73.156;2023-04-01T07:48:39;5.20;;;3.60;;
63379;SDS011;53160;55.014;73.156;2023-04-01T07:56:10;7.80;;;6.20;;
63379;SDS011;53160;55.014;73.156;2023-04-01T07:58:47;9.80;;;7.20;;
63379;SDS011;53160;55.014;73.156;2023-04-01T08:02:20;8.20;;;5.80;;
63379;SDS011;53160;55.014;73.156;2023-04-01T08:21:31;15.80;;;8.00;;
63379;SDS011;53160;55.014;73.156;2023-04-01T08:24:00;12.00;;;8.20;;
63379;SDS011;53160;55.014;73.156;2023-04-01T08:26:37;54.60;;;21.40;;
63379;SDS011;53160;55.014;73.156;2023-04-01T08:29:11;15.20;;;11.60;;
63379;SDS011;53160;55.014;73.156;2023-04-01T08:31:48;9.60;;;8.60;;
63379;SDS011;53160;55.014;73.156;2023-04-01T08:34:38;5.50;;;4.75;;
63379;SDS011;53160;55.014;73.156;2023-04-01T08:37:07;7.75;;;5.75;;
63379;SDS011;53160;55.014;73.156;2023-04-01T08:39:44;15.00;;;13.25;;
63379;SDS011;53160;55.014;73.156;2023-04-01T08:50:37;29.25;;;15.25;;
63379;SDS011;53160;55.014;73.156;2023-04-01T08:53:54;8.00;;;7.00;;
63379;SDS011;53160;55.014;73.156;2023-04-01T08:56:41;4.00;;;2.00;;
63379;SDS011;53160;55.014;73.156;2023-04-01T09:07:38;10.25;;;7.75;;
63379;SDS011;53160;55.014;73.156;2023-04-01T09:34:30;5.00;;;3.75;;
63379;SDS011;53160;55.014;73.156;2023-04-01T09:40:18;4.25;;;2.50;;
63379;SDS011;53160;55.014;73.156;2023-04-01T09:50:37;7.50;;;4.50;;
63379;SDS011;53160;55.014;73.156;2023-04-01T09:58:29;8.25;;;6.00;;
63379;SDS011;53160;55.014;73.156;2023-04-01T10:01:34;3.50;;;2.00;;
63379;SDS011;53160;55.014;73.156;2023-04-01T10:07:01;4.50;;;2.75;;
63379;SDS011;53160;55.014;73.156;2023-04-01T10:12:24;4.25;;;3.50;;
63379;SDS011;53160;55.014;73.156;2023-04-01T10:20:22;1.00;;;0.00;;
63379;SDS011;53160;55.014;73.156;2023-04-01T10:23:17;9.25;;;7.50;;
63379;SDS011;53160;55.014;73.156;2023-04-01T10:43:38;3.50;;;2.50;;
63379;SDS011;53160;55.014;73.156;2023-04-01T10:45:52;7.25;;;5.25;;
63379;SDS011;53160;55.014;73.156;2023-04-01T11:00:06;4.25;;;3.50;;
63379;SDS011;53160;55.014;73.156;2023-04-01T11:05:39;4.00;;;3.50;;
63379;SDS011;53160;55.014;73.156;2023-04-01T11:08:31;9.25;;;4.75;;
63379;SDS011;53160;55.014;73.156;2023-04-01T11:28:27;5.75;;;4.00;;
63379;SDS011;53160;55.014;73.156;2023-04-01T11:55:58;4.75;;;4.75;;
63379;SDS011;53160;55.014;73.156;2023-04-01T11:58:31;7.00;;;4.75;;
63379;SDS011;53160;55.014;73.156;2023-04-01T12:26:39;7.00;;;5.60;;
63379;SDS011;53160;55.014;73.156;2023-04-01T12:29:16;4.80;;;3.40;;
63379;SDS011;53160;55.014;73.156;2023-04-01T12:34:35;6.60;;;4.60;;
63379;SDS011;53160;55.014;73.156;2023-04-01T12:55:46;6.80;;;6.60;;
63379;SDS011;53160;55.014;73.156;2023-04-01T13:11:09;9.80;;;8.20;;
63379;SDS011;53160;55.014;73.156;2023-04-01T13:19:15;6.20;;;5.00;;
63379;SDS011;53160;55.014;73.156;2023-04-01T13:24:51;12.40;;;8.40;;
63379;SDS011;53160;55.014;73.156;2023-04-01T13:32:28;9.60;;;8.20;;
63379;SDS011;53160;55.014;73.156;2023-04-01T13:35:40;4.80;;;3.00;;
63379;SDS011;53160;55.014;73.156;2023-04-01T13:37:52;7.20;;;5.00;;
63379;SDS011;53160;55.014;73.156;2023-04-01T13:43:16;9.40;;;8.60;;
63379;SDS011;53160;55.014;73.156;2023-04-01T13:51:12;6.60;;;6.60;;
63379;SDS011;53160;55.014;73.156;2023-04-01T13:56:34;6.20;;;5.20;;
63379;SDS011;53160;55.014;73.156;2023-04-01T14:01:58;12.40;;;8.60;;
63379;SDS011;53160;55.014;73.156;2023-04-01T14:09:44;5.40;;;3.60;;
63379;SDS011;53160;55.014;73.156;2023-04-01T14:19:55;15.80;;;12.40;;
63379;SDS011;53160;55.014;73.156;2023-04-01T14:22:42;10.40;;;9.60;;
63379;SDS011;53160;55.014;73.156;2023-04-01T14:25:52;9.20;;;5.60;;
63379;SDS011;53160;55.014;73.156;2023-04-01T14:31:14;15.00;;;11.60;;
63379;SDS011;53160;55.014;73.156;2023-04-01T14:33:43;18.20;;;16.00;;
63379;SDS011;53160;55.014;73.156;2023-04-01T14:38:40;13.50;;;12.00;;
63379;SDS011;53160;55.014;73.156;2023-04-01T14:41:29;23.20;;;13.80;;
63379;SDS011;53160;55.014;73.156;2023-04-01T14:49:17;14.40;;;12.20;;
63379;SDS011;53160;55.014;73.156;2023-04-01T14:51:46;19.00;;;15.80;;
63379;SDS011;53160;55.014;73.156;2023-04-01T14:54:16;16.80;;;15.00;;
63379;SDS011;53160;55.014;73.156;2023-04-01T14:56:49;16.20;;;16.20;;
63379;SDS011;53160;55.014;73.156;2023-04-01T15:04:37;15.20;;;11.80;;
63379;SDS011;53160;55.014;73.156;2023-04-01T15:10:02;17.00;;;14.40;;
63379;SDS011;53160;55.014;73.156;2023-04-01T15:28:38;18.00;;;10.20;;
63379;SDS011;53160;55.014;73.156;2023-04-01T15:31:15;17.40;;;11.60;;
63379;SDS011;53160;55.014;73.156;2023-04-01T15:41:14;11.60;;;8.60;;
63379;SDS011;53160;55.014;73.156;2023-04-01T15:43:47;15.40;;;11.80;;
63379;SDS011;53160;55.014;73.156;2023-04-01T15:49:20;12.60;;;10.60;;
63379;SDS011;53160;55.014;73.156;2023-04-01T15:51:53;10.80;;;10.20;;
63379;SDS011;53160;55.014;73.156;2023-04-01T16:00:10;11.40;;;9.80;;
63379;SDS011;53160;55.014;73.156;2023-04-01T16:02:48;16.20;;;11.40;;
63379;SDS011;53160;55.014;73.156;2023-04-01T16:08:09;7.40;;;6.20;;
63379;SDS011;53160;55.014;73.156;2023-04-01T16:21:04;9.20;;;9.20;;
63379;SDS011;53160;55.014;73.156;2023-04-01T16:26:38;8.00;;;6.60;;
63379;SDS011;53160;55.014;73.156;2023-04-01T16:29:22;10.60;;;8.60;;
63379;SDS011;53160;55.014;73.156;2023-04-01T16:34:36;8.50;;;8.25;;
63379;SDS011;53160;55.014;73.156;2023-04-01T16:37:09;9.20;;;8.40;;
63379;SDS011;53160;55.014;73.156;2023-04-01T16:39:47;12.80;;;11.00;;
63379;SDS011;53160;55.014;73.156;2023-04-01T16:47:50;13.60;;;11.20;;
63379;SDS011;53160;55.014;73.156;2023-04-01T16:58:18;14.40;;;12.00;;
63379;SDS011;53160;55.014;73.156;2023-04-01T17:00:50;12.80;;;11.00;;
63379;SDS011;53160;55.014;73.156;2023-04-01T17:04:00;10.60;;;9.00;;
63379;SDS011;53160;55.014;73.156;2023-04-01T17:14:28;5.80;;;5.00;;
63379;SDS011;53160;55.014;73.156;2023-04-01T17:30:23;11.00;;;9.80;;
63379;SDS011;53160;55.014;73.156;2023-04-01T17:35:35;11.60;;;10.00;;
63379;SDS011;53160;55.014;73.156;2023-04-01T17:38:08;8.40;;;7.20;;
63379;SDS011;53160;55.014;73.156;2023-04-01T17:49:14;12.20;;;10.60;;
63379;SDS011;53160;55.014;73.156;2023-04-01T18:07:56;11.60;;;11.00;;
63379;SDS011;53160;55.014;73.156;2023-04-01T18:13:29;11.60;;;8.00;;
63379;SDS011;53160;55.014;73.156;2023-04-01T18:16:12;9.80;;;7.60;;
63379;SDS011;53160;55.014;73.156;2023-04-01T18:21:36;14.20;;;11.80;;
63379;SDS011;53160;55.014;73.156;2023-04-01T18:26:39;10.60;;;7.40;;
63379;SDS011;53160;55.014;73.156;2023-04-01T18:29:19;5.20;;;4.20;;
63379;SDS011;53160;55.014;73.156;2023-04-01T18:31:54;11.80;;;10.00;;
63379;SDS011;53160;55.014;73.156;2023-04-01T18:37:34;11.00;;;7.60;;
63379;SDS011;53160;55.014;73.156;2023-04-01T18:45:22;7.00;;;5.40;;
63379;SDS011;53160;55.014;73.156;2023-04-01T18:48:03;7.60;;;7.20;;
63379;SDS011;53160;55.014;73.156;2023-04-01T18:50:41;8.40;;;7.80;;
63379;SDS011;53160;55.014;73.156;2023-04-01T18:55:39;7.60;;;5.80;;
63379;SDS011;53160;55.014;73.156;2023-04-01T19:04:00;4.80;;;3.60;;
63379;SDS011;53160;55.014;73.156;2023-04-01T19:08:52;5.50;;;5.00;;
63379;SDS011;53160;55.014;73.156;2023-04-01T19:11:27;11.40;;;6.80;;
63379;SDS011;53160;55.014;73.156;2023-04-01T19:14:09;7.40;;;5.40;;
63379;SDS011;53160;55.014;73.156;2023-04-01T19:19:11;4.40;;;3.80;;
63379;SDS011;53160;55.014;73.156;2023-04-01T19:24:35;6.20;;;4.80;;
63379;SDS011;53160;55.014;73.156;2023-04-01T19:27:10;7.80;;;6.20;;
63379;SDS011;53160;55.014;73.156;2023-04-01T19:30:01;6.20;;;5.00;;
63379;SDS011;53160;55.014;73.156;2023-04-01T19:35:23;6.20;;;6.20;;
63379;SDS011;53160;55.014;73.156;2023-04-01T19:53:13;6.80;;;3.60;;
63379;SDS011;53160;55.014;73.156;2023-04-01T19:55:50;6.60;;;4.20;;
63379;SDS011;53160;55.014;73.156;2023-04-01T20:00:58;4.25;;;4.25;;
63379;SDS011;53160;55.014;73.156;2023-04-01T20:03:33;5.80;;;5.00;;
63379;SDS011;53160;55.014;73.156;2023-04-01T20:08:45;89.60;;;65.20;;
63379;SDS011;53160;55.014;73.156;2023-04-01T20:13:56;95.00;;;69.60;;
63379;SDS011;53160;55.014;73.156;2023-04-01T20:16:36;69.20;;;52.00;;
63379;SDS011;53160;55.014;73.156;2023-04-01T20:19:14;42.60;;;37.80;;
63379;SDS011;53160;55.014;73.156;2023-04-01T20:21:51;18.20;;;16.00;;
63379;SDS011;53160;55.014;73.156;2023-04-01T20:24:26;8.00;;;7.00;;
63379;SDS011;53160;55.014;73.156;2023-04-01T20:32:24;10.40;;;7.20;;
63379;SDS011;53160;55.014;73.156;2023-04-01T20:40:20;13.40;;;10.40;;
63379;SDS011;53160;55.014;73.156;2023-04-01T20:45:22;12.20;;;11.80;;
63379;SDS011;53160;55.014;73.156;2023-04-01T20:53:25;7.60;;;7.00;;
63379;SDS011;53160;55.014;73.156;2023-04-01T21:01:35;23.60;;;19.40;;
63379;SDS011;53160;55.014;73.156;2023-04-01T21:06:27;13.60;;;13.60;;
63379;SDS011;53160;55.014;73.156;2023-04-01T21:30:21;4.80;;;3.60;;
63379;SDS011;53160;55.014;73.156;2023-04-01T21:35:31;2.40;;;1.20;;
63379;SDS011;53160;55.014;73.156;2023-04-01T22:01:21;4.40;;;4.00;;
63379;SDS011;53160;55.014;73.156;2023-04-01T22:09:00;3.60;;;3.60;;
63379;SDS011;53160;55.014;73.156;2023-04-01T22:11:44;1.80;;;1.80;;
63379;SDS011;53160;55.014;73.156;2023-04-01T22:14:17;4.40;;;2.40;;
63379;SDS011;53160;55.014;73.156;2023-04-01T22:17:00;4.20;;;3.60;;
63379;SDS011;53160;55.014;73.156;2023-04-01T22:22:17;7.20;;;5.20;;
63379;SDS011;53160;55.014;73.156;2023-04-01T22:27:30;4.60;;;4.40;;
63379;SDS011;53160;55.014;73.156;2023-04-01T22:30:08;7.60;;;4.00;;
63379;SDS011;53160;55.014;73.156;2023-04-01T22:32:42;4.60;;;2.00;;
63379;SDS011;53160;55.014;73.156;2023-04-01T22:35:12;3.80;;;2.40;;
63379;SDS011;53160;55.014;73.156;2023-04-01T22:38:00;3.80;;;2.80;;
63379;SDS011;53160;55.014;73.156;2023-04-01T22:43:15;11.00;;;10.00;;
63379;SDS011;53160;55.014;73.156;2023-04-01T22:56:11;4.00;;;4.00;;
63379;SDS011;53160;55.014;73.156;2023-04-01T22:59:27;4.80;;;4.00;;
63379;SDS011;53160;55.014;73.156;2023-04-01T23:01:36;2.40;;;1.80;;
63379;SDS011;53160;55.014;73.156;2023-04-01T23:04:14;2.40;;;2.20;;
63379;SDS011;53160;55.014;73.156;2023-04-01T23:06:56;1.20;;;0.80;;
63379;SDS011;53160;55.014;73.156;2023-04-01T23:09:28;2.60;;;2.20;;
63379;SDS011;53160;55.014;73.156;2023-04-01T23:12:12;5.00;;;2.40;;
63379;SDS011;53160;55.014;73.156;2023-04-01T23:15:00;1.00;;;1.00;;
63379;SDS011;53160;55.014;73.156;2023-04-01T23:20:05;6.40;;;4.60;;
63379;SDS011;53160;55.014;73.156;2023-04-01T23:25:27;4.20;;;2.20;;
63379;SDS011;53160;55.014;73.156;2023-04-01T23:30:47;4.60;;;2.20;;
63379;SDS011;53160;55.014;73.156;2023-04-01T23:38:23;4.00;;;4.00;;
63379;SDS011;53160;55.014;73.156;2023-04-01T23:40:50;8.80;;;7.60;;
63379;SDS011;53160;55.014;73.156;2023-04-01T23:45:56;2.25;;;2.25;;
63379;SDS011;53160;55.014;73.156;2023-04-01T23:48:38;5.60;;;4.60;;
63379;SDS011;53160;55.014;73.156;2023-04-01T23:51:09;8.00;;;5.20;;
63379;SDS011;53160;55.014;73.156;2023-04-01T23:53:41;5.80;;;5.00;;
63379;SDS011;53160;55.014;73.156;2023-04-01T23:56:07;5.40;;;4.40;;
63379;SDS011;53160;55.014;73.156;2023-04-01T23:58:47;4.20;;;2.20;;
